Alpha, Michigan
Current Conditions -  °F | °C
As of 11:54 AM on Thursday 30 Oct 2014 (Local Time) from KIMT Reporting Station
Overcast Overcast  
Wind Chill: 36°   Ceiling: 2000
Heat Index: 41°   Visibility: 10mi
Dew Point: 32°   Wind: 7mph
Humidity: 70%   Direction: 290°WNW
Pressure: 30.03"   Gusts: NA
Location:  46.04°N, 88.38°W
Report Text: KIMT 301654Z AUTO 29006KT 10SM OVC020 05/00 A3003 RMK AO2 SLP179 T00500000
Loading
Personal Weather Stations






























Interactive Weather Map
Tropical Storm Tracking
New forecast layout! Learn more

10-Day Weather Forecast

Advertisements
Track Severe Weather on mobile